AGGH/HIR METAR and TAF weather

Enter ICAO airport designator
Station Type Date Time Source
AGGH METAR 2018/04/26 07:00 UTC NOAA

AGGH 260700Z 07004KT 9999 FEW018 29/24 Q1007


Station Type Date Time Source
AGGH Decoded METAR 2018/04/26 07:00 UTC NOAA

Honiara / Henderson, Solomon Islands (AGGH) 09-25S 160-03E 9M
Apr 26, 2018 - 03:00 AM EDT / 2018.04.26 0700 UTC
Wind: from the ENE (070 degrees) at 5 MPH (4 KT):0
Visibility: greater than 7 mile(s):0
Sky conditions: mostly clear
Temperature: 84 F (29 C)
Dew Point: 75 F (24 C)
Relative Humidity: 74%
Pressure (altimeter): 29.74 in. Hg (1007 hPa)
ob: AGGH 260700Z 07004KT 9999 FEW018 29/24 Q1007
cycle: 7

Station Type Date Time Source
AGGH TAF 2018/04/26 06:59 UTC NOAA

TAF AGGH 260450Z 2606/2706 05008KT 9999 FEW016 SCT100 PROB40 INTER 2606/2612 9999 -TSSH SCT017 FEW018CB T 31 28 26 25 Q 1006 1008 1009 1007


Example: see airport list